Ellington Field
KEFD : now visible

Airfield :











YOU CAN JOIN US ON...

 
LOGIN :

Register | Disclaimer

   EN    FR    IT 

 









Legend :    VFR   Marginal VFR   IFR   Intensive IFR   Very Intensive IFR
Visi :
Ceiling :
>= 8 km
>= 3000ft
5 to 8 km
1000 to 3000 ft
1500m to 5 km
500 to 1000 ft
800 to 1500m
200 to 500 ft
< 800m
< 200 ft
Symbols :   Thunderstorms  Fog  Heavy snow  Heavy precipitations  Wind > 20 kt






- Airport Elevation : 32 ft


KEFD - Ellington Field

CURRENT METAR :
  • 241854Z 10007KT 10SM SCT045 OVC055 25/21 A2978

EXPIRED METARs :
  • 241754Z 10007KT 10SM SCT045 OVC055 23/21 A2980
  • 241654Z 04007KT 7SM -RA SCT045 OVC055 21/20 A2980

TAF AMD TAF KEFD
Valid from the 24 at 14:00 until the 25 at 18:00 UTC


241458Z 2414/2518 13006KT 9000 -SHRA BKN025 QNH2978INS
TEMPO 2415/2418 VRB20G45KT 1600 +TSRAGR BKN020CB OVC040
BECMG 2422/2423 17012G18KT 9999 NSW BKN030 510013 QNH2971INS
BECMG 2501/2502 15009KT 9000 -SHRA OVC016 510013 QNH2973INS
BECMG 2504/2505 17006KT 8000 BR BKN009 510023 QNH2974INS
BECMG 2508/2509 17009KT 8000 -SHRA BKN010 510013 QNH2974INS
TEMPO 2509/2513 VRB15G25KT 8000 -TSRA BKN015CB OVC025
BECMG 2513/2514 18006KT 8000 -SHRA BKN015 510023 QNH2980INS TX28/2421Z TN23/2414Z
KZHU FIR / North America



MET'MAP, your aeronautical weather chart ! - Copyright ORBIFLY December 2007 - Disclaimer

ORBIFLY MET'MAP TEAM :

Programming & Development : Alexandra Zaïnal
Original concept : Baudouin d'Aumeries
Technical & hardware support : Manuel Goepfert
Assistance : Marc-Olivier Méhu

Contact : metmap@orbifly.com




SOURCES & CREDITS :

   NOAA       Earth
Advisory